sensor_id;sensor_type;location;lat;lon;timestamp;P1;durP1;ratioP1;P2;durP2;ratioP2
20689;SDS011;10504;48.762;8.996;2022-07-29T00:00:00;3.93;;;1.50;;
20689;SDS011;10504;48.762;8.996;2022-07-29T00:02:26;2.40;;;1.60;;
20689;SDS011;10504;48.762;8.996;2022-07-29T00:04:52;3.07;;;1.33;;
20689;SDS011;10504;48.762;8.996;2022-07-29T00:07:19;3.67;;;1.60;;
20689;SDS011;10504;48.762;8.996;2022-07-29T00:09:44;3.07;;;1.43;;
20689;SDS011;10504;48.762;8.996;2022-07-29T00:12:10;3.77;;;1.50;;
20689;SDS011;10504;48.762;8.996;2022-07-29T00:14:36;2.30;;;1.30;;
20689;SDS011;10504;48.762;8.996;2022-07-29T00:17:02;4.73;;;2.00;;
20689;SDS011;10504;48.762;8.996;2022-07-29T00:19:28;2.00;;;1.40;;
20689;SDS011;10504;48.762;8.996;2022-07-29T00:21:53;3.33;;;1.30;;
20689;SDS011;10504;48.762;8.996;2022-07-29T00:24:19;6.67;;;1.73;;
20689;SDS011;10504;48.762;8.996;2022-07-29T00:26:44;3.50;;;1.43;;
20689;SDS011;10504;48.762;8.996;2022-07-29T00:29:10;2.17;;;1.50;;
20689;SDS011;10504;48.762;8.996;2022-07-29T00:31:36;3.60;;;1.60;;
20689;SDS011;10504;48.762;8.996;2022-07-29T00:34:02;2.37;;;1.30;;
20689;SDS011;10504;48.762;8.996;2022-07-29T00:36:27;3.30;;;1.50;;
20689;SDS011;10504;48.762;8.996;2022-07-29T00:38:53;4.07;;;1.77;;
20689;SDS011;10504;48.762;8.996;2022-07-29T00:41:19;2.93;;;1.50;;
20689;SDS011;10504;48.762;8.996;2022-07-29T00:43:45;3.23;;;1.30;;
20689;SDS011;10504;48.762;8.996;2022-07-29T00:46:11;2.93;;;1.50;;
20689;SDS011;10504;48.762;8.996;2022-07-29T00:48:37;3.37;;;1.57;;
20689;SDS011;10504;48.762;8.996;2022-07-29T00:51:04;4.17;;;1.70;;
20689;SDS011;10504;48.762;8.996;2022-07-29T00:53:31;2.90;;;1.33;;
20689;SDS011;10504;48.762;8.996;2022-07-29T00:55:57;2.90;;;1.33;;
20689;SDS011;10504;48.762;8.996;2022-07-29T00:58:24;2.50;;;1.60;;
20689;SDS011;10504;48.762;8.996;2022-07-29T01:00:51;4.77;;;1.70;;
20689;SDS011;10504;48.762;8.996;2022-07-29T01:03:18;2.60;;;1.43;;
20689;SDS011;10504;48.762;8.996;2022-07-29T01:05:44;4.67;;;2.00;;
20689;SDS011;10504;48.762;8.996;2022-07-29T01:08:11;3.73;;;1.40;;
20689;SDS011;10504;48.762;8.996;2022-07-29T01:10:38;4.37;;;1.67;;
20689;SDS011;10504;48.762;8.996;2022-07-29T01:13:06;2.17;;;1.10;;
20689;SDS011;10504;48.762;8.996;2022-07-29T01:15:33;6.60;;;1.90;;
20689;SDS011;10504;48.762;8.996;2022-07-29T01:18:11;3.27;;;1.57;;
20689;SDS011;10504;48.762;8.996;2022-07-29T01:31:19;2.13;;;1.70;;
20689;SDS011;10504;48.762;8.996;2022-07-29T01:33:51;6.87;;;2.60;;
20689;SDS011;10504;48.762;8.996;2022-07-29T01:36:29;4.77;;;1.90;;
20689;SDS011;10504;48.762;8.996;2022-07-29T01:39:08;6.00;;;2.30;;
20689;SDS011;10504;48.762;8.996;2022-07-29T01:41:38;3.53;;;2.00;;
20689;SDS011;10504;48.762;8.996;2022-07-29T01:44:15;4.90;;;2.07;;
20689;SDS011;10504;48.762;8.996;2022-07-29T01:46:52;2.43;;;1.50;;
20689;SDS011;10504;48.762;8.996;2022-07-29T01:49:31;3.00;;;2.03;;
20689;SDS011;10504;48.762;8.996;2022-07-29T01:52:02;5.67;;;2.40;;
20689;SDS011;10504;48.762;8.996;2022-07-29T01:54:37;3.93;;;1.77;;
20689;SDS011;10504;48.762;8.996;2022-07-29T01:57:08;3.30;;;1.43;;
20689;SDS011;10504;48.762;8.996;2022-07-29T01:59:36;3.30;;;1.90;;
20689;SDS011;10504;48.762;8.996;2022-07-29T02:02:03;2.60;;;1.47;;
20689;SDS011;10504;48.762;8.996;2022-07-29T02:04:31;2.57;;;1.23;;
20689;SDS011;10504;48.762;8.996;2022-07-29T02:07:00;2.97;;;1.10;;
20689;SDS011;10504;48.762;8.996;2022-07-29T02:09:29;1.97;;;1.33;;
20689;SDS011;10504;48.762;8.996;2022-07-29T02:11:56;2.80;;;1.67;;
20689;SDS011;10504;48.762;8.996;2022-07-29T02:14:24;3.00;;;1.47;;
20689;SDS011;10504;48.762;8.996;2022-07-29T02:16:53;2.80;;;1.30;;
20689;SDS011;10504;48.762;8.996;2022-07-29T02:19:21;4.17;;;2.03;;
20689;SDS011;10504;48.762;8.996;2022-07-29T02:21:50;3.17;;;1.50;;
20689;SDS011;10504;48.762;8.996;2022-07-29T02:24:18;2.30;;;1.30;;
20689;SDS011;10504;48.762;8.996;2022-07-29T02:26:46;4.30;;;1.90;;
20689;SDS011;10504;48.762;8.996;2022-07-29T02:29:14;4.00;;;1.50;;
20689;SDS011;10504;48.762;8.996;2022-07-29T02:31:41;2.67;;;1.40;;
20689;SDS011;10504;48.762;8.996;2022-07-29T02:34:09;2.50;;;1.27;;
20689;SDS011;10504;48.762;8.996;2022-07-29T02:36:36;2.13;;;1.13;;
20689;SDS011;10504;48.762;8.996;2022-07-29T02:39:04;3.00;;;1.50;;
20689;SDS011;10504;48.762;8.996;2022-07-29T02:41:44;2.83;;;1.53;;
20689;SDS011;10504;48.762;8.996;2022-07-29T02:44:16;3.50;;;1.50;;
20689;SDS011;10504;48.762;8.996;2022-07-29T02:49:45;2.90;;;1.30;;
20689;SDS011;10504;48.762;8.996;2022-07-29T02:52:39;3.43;;;1.40;;
20689;SDS011;10504;48.762;8.996;2022-07-29T02:55:18;3.27;;;1.83;;
20689;SDS011;10504;48.762;8.996;2022-07-29T03:00:35;2.43;;;1.43;;
20689;SDS011;10504;48.762;8.996;2022-07-29T03:03:03;3.80;;;1.43;;
20689;SDS011;10504;48.762;8.996;2022-07-29T03:05:31;3.60;;;1.60;;
20689;SDS011;10504;48.762;8.996;2022-07-29T03:08:00;3.23;;;1.30;;
20689;SDS011;10504;48.762;8.996;2022-07-29T03:10:29;2.73;;;1.40;;
20689;SDS011;10504;48.762;8.996;2022-07-29T03:12:56;4.10;;;1.57;;
20689;SDS011;10504;48.762;8.996;2022-07-29T03:15:22;4.80;;;1.80;;
20689;SDS011;10504;48.762;8.996;2022-07-29T03:17:49;1.90;;;1.20;;
20689;SDS011;10504;48.762;8.996;2022-07-29T03:20:16;3.23;;;1.70;;
20689;SDS011;10504;48.762;8.996;2022-07-29T03:22:43;3.03;;;1.50;;
20689;SDS011;10504;48.762;8.996;2022-07-29T03:25:11;1.90;;;1.40;;
20689;SDS011;10504;48.762;8.996;2022-07-29T03:27:42;4.33;;;1.73;;
20689;SDS011;10504;48.762;8.996;2022-07-29T03:30:08;2.47;;;1.47;;
20689;SDS011;10504;48.762;8.996;2022-07-29T03:32:35;3.17;;;1.77;;
20689;SDS011;10504;48.762;8.996;2022-07-29T03:35:01;5.13;;;2.00;;
20689;SDS011;10504;48.762;8.996;2022-07-29T03:37:27;2.63;;;1.20;;
20689;SDS011;10504;48.762;8.996;2022-07-29T03:39:55;2.63;;;1.20;;
20689;SDS011;10504;48.762;8.996;2022-07-29T03:42:23;3.20;;;1.43;;
20689;SDS011;10504;48.762;8.996;2022-07-29T03:44:52;4.37;;;1.40;;
20689;SDS011;10504;48.762;8.996;2022-07-29T03:47:20;3.90;;;1.87;;
20689;SDS011;10504;48.762;8.996;2022-07-29T03:49:48;5.57;;;1.47;;
20689;SDS011;10504;48.762;8.996;2022-07-29T03:52:17;2.33;;;1.33;;
20689;SDS011;10504;48.762;8.996;2022-07-29T03:54:43;7.17;;;1.23;;
20689;SDS011;10504;48.762;8.996;2022-07-29T03:57:10;2.87;;;1.33;;
20689;SDS011;10504;48.762;8.996;2022-07-29T03:59:37;3.33;;;1.40;;
20689;SDS011;10504;48.762;8.996;2022-07-29T04:02:04;2.10;;;1.03;;
20689;SDS011;10504;48.762;8.996;2022-07-29T04:04:33;2.60;;;1.20;;
20689;SDS011;10504;48.762;8.996;2022-07-29T04:07:00;2.23;;;1.40;;
20689;SDS011;10504;48.762;8.996;2022-07-29T04:09:25;3.20;;;1.40;;
20689;SDS011;10504;48.762;8.996;2022-07-29T04:11:51;3.23;;;1.47;;
20689;SDS011;10504;48.762;8.996;2022-07-29T04:14:17;2.23;;;1.17;;
20689;SDS011;10504;48.762;8.996;2022-07-29T04:16:43;3.00;;;1.20;;
20689;SDS011;10504;48.762;8.996;2022-07-29T04:19:09;2.83;;;1.50;;
20689;SDS011;10504;48.762;8.996;2022-07-29T04:21:38;2.33;;;1.03;;
20689;SDS011;10504;48.762;8.996;2022-07-29T04:24:05;2.23;;;1.40;;
20689;SDS011;10504;48.762;8.996;2022-07-29T04:26:31;3.97;;;1.63;;
20689;SDS011;10504;48.762;8.996;2022-07-29T04:28:57;2.20;;;1.17;;
20689;SDS011;10504;48.762;8.996;2022-07-29T04:31:23;2.73;;;1.37;;
20689;SDS011;10504;48.762;8.996;2022-07-29T04:33:49;3.60;;;1.20;;
20689;SDS011;10504;48.762;8.996;2022-07-29T04:36:15;2.40;;;1.10;;
20689;SDS011;10504;48.762;8.996;2022-07-29T04:38:40;1.70;;;1.00;;
20689;SDS011;10504;48.762;8.996;2022-07-29T04:41:06;3.03;;;1.40;;
20689;SDS011;10504;48.762;8.996;2022-07-29T04:43:33;2.53;;;1.10;;
20689;SDS011;10504;48.762;8.996;2022-07-29T04:46:00;1.97;;;1.07;;
20689;SDS011;10504;48.762;8.996;2022-07-29T04:48:26;2.97;;;1.50;;
20689;SDS011;10504;48.762;8.996;2022-07-29T04:50:52;1.93;;;1.00;;
20689;SDS011;10504;48.762;8.996;2022-07-29T04:53:18;3.53;;;1.20;;
20689;SDS011;10504;48.762;8.996;2022-07-29T04:55:44;3.23;;;1.43;;
20689;SDS011;10504;48.762;8.996;2022-07-29T04:58:10;1.87;;;1.00;;
20689;SDS011;10504;48.762;8.996;2022-07-29T05:00:36;1.43;;;0.97;;
20689;SDS011;10504;48.762;8.996;2022-07-29T05:03:02;5.37;;;1.30;;
20689;SDS011;10504;48.762;8.996;2022-07-29T05:05:28;1.43;;;1.07;;
20689;SDS011;10504;48.762;8.996;2022-07-29T05:07:54;2.43;;;1.10;;
20689;SDS011;10504;48.762;8.996;2022-07-29T05:10:20;2.50;;;1.10;;
20689;SDS011;10504;48.762;8.996;2022-07-29T05:12:46;3.03;;;1.20;;
20689;SDS011;10504;48.762;8.996;2022-07-29T05:15:12;2.33;;;1.17;;
20689;SDS011;10504;48.762;8.996;2022-07-29T05:17:37;2.17;;;1.10;;
20689;SDS011;10504;48.762;8.996;2022-07-29T05:20:04;2.20;;;1.17;;
20689;SDS011;10504;48.762;8.996;2022-07-29T05:22:30;1.80;;;1.07;;
20689;SDS011;10504;48.762;8.996;2022-07-29T05:24:56;2.00;;;1.20;;
20689;SDS011;10504;48.762;8.996;2022-07-29T05:27:21;1.73;;;0.90;;
20689;SDS011;10504;48.762;8.996;2022-07-29T05:29:47;1.70;;;1.00;;
20689;SDS011;10504;48.762;8.996;2022-07-29T05:32:13;2.57;;;1.17;;
20689;SDS011;10504;48.762;8.996;2022-07-29T05:34:39;2.50;;;1.33;;
20689;SDS011;10504;48.762;8.996;2022-07-29T05:37:05;2.33;;;1.27;;
20689;SDS011;10504;48.762;8.996;2022-07-29T05:39:31;3.10;;;1.40;;
20689;SDS011;10504;48.762;8.996;2022-07-29T05:41:56;1.93;;;1.33;;
20689;SDS011;10504;48.762;8.996;2022-07-29T05:44:22;2.17;;;1.20;;
20689;SDS011;10504;48.762;8.996;2022-07-29T05:46:48;3.13;;;1.50;;
20689;SDS011;10504;48.762;8.996;2022-07-29T05:49:14;2.90;;;1.23;;
20689;SDS011;10504;48.762;8.996;2022-07-29T05:51:39;4.63;;;1.63;;
20689;SDS011;10504;48.762;8.996;2022-07-29T05:54:05;2.17;;;1.10;;
20689;SDS011;10504;48.762;8.996;2022-07-29T05:56:31;1.47;;;1.03;;
20689;SDS011;10504;48.762;8.996;2022-07-29T05:58:57;2.33;;;1.27;;
20689;SDS011;10504;48.762;8.996;2022-07-29T06:01:23;2.50;;;1.40;;
20689;SDS011;10504;48.762;8.996;2022-07-29T06:03:49;3.37;;;1.50;;
20689;SDS011;10504;48.762;8.996;2022-07-29T06:06:15;3.40;;;2.03;;
20689;SDS011;10504;48.762;8.996;2022-07-29T06:08:40;3.97;;;1.60;;
20689;SDS011;10504;48.762;8.996;2022-07-29T06:11:06;2.47;;;1.50;;
20689;SDS011;10504;48.762;8.996;2022-07-29T06:13:33;3.13;;;1.73;;
20689;SDS011;10504;48.762;8.996;2022-07-29T06:15:59;3.37;;;1.47;;
20689;SDS011;10504;48.762;8.996;2022-07-29T06:18:25;2.60;;;1.57;;
20689;SDS011;10504;48.762;8.996;2022-07-29T06:20:52;2.83;;;1.30;;
20689;SDS011;10504;48.762;8.996;2022-07-29T06:23:18;2.27;;;1.37;;
20689;SDS011;10504;48.762;8.996;2022-07-29T06:25:44;2.43;;;1.47;;
20689;SDS011;10504;48.762;8.996;2022-07-29T06:28:10;2.87;;;1.40;;
20689;SDS011;10504;48.762;8.996;2022-07-29T06:30:36;1.87;;;1.30;;
20689;SDS011;10504;48.762;8.996;2022-07-29T06:33:02;4.03;;;1.50;;
20689;SDS011;10504;48.762;8.996;2022-07-29T06:35:29;3.20;;;1.47;;
20689;SDS011;10504;48.762;8.996;2022-07-29T06:37:54;2.50;;;1.33;;
20689;SDS011;10504;48.762;8.996;2022-07-29T06:40:20;3.53;;;1.80;;
20689;SDS011;10504;48.762;8.996;2022-07-29T06:43:04;4.03;;;1.50;;
20689;SDS011;10504;48.762;8.996;2022-07-29T06:45:33;1.57;;;1.40;;
20689;SDS011;10504;48.762;8.996;2022-07-29T06:47:59;2.70;;;1.30;;
20689;SDS011;10504;48.762;8.996;2022-07-29T06:50:25;2.20;;;1.23;;
20689;SDS011;10504;48.762;8.996;2022-07-29T06:52:50;1.70;;;1.00;;
20689;SDS011;10504;48.762;8.996;2022-07-29T06:55:16;1.87;;;1.30;;
20689;SDS011;10504;48.762;8.996;2022-07-29T06:57:44;2.17;;;1.20;;
20689;SDS011;10504;48.762;8.996;2022-07-29T07:00:11;3.63;;;1.60;;
20689;SDS011;10504;48.762;8.996;2022-07-29T07:02:38;1.40;;;0.90;;
20689;SDS011;10504;48.762;8.996;2022-07-29T07:05:04;2.93;;;1.53;;
20689;SDS011;10504;48.762;8.996;2022-07-29T07:07:30;1.53;;;1.10;;
20689;SDS011;10504;48.762;8.996;2022-07-29T07:09:56;2.63;;;1.30;;
20689;SDS011;10504;48.762;8.996;2022-07-29T07:12:22;1.50;;;1.13;;
20689;SDS011;10504;48.762;8.996;2022-07-29T07:14:48;3.87;;;1.67;;
20689;SDS011;10504;48.762;8.996;2022-07-29T07:17:13;1.50;;;1.03;;
20689;SDS011;10504;48.762;8.996;2022-07-29T07:19:39;3.50;;;1.47;;
20689;SDS011;10504;48.762;8.996;2022-07-29T07:22:05;1.73;;;1.07;;
20689;SDS011;10504;48.762;8.996;2022-07-29T07:24:31;1.67;;;1.00;;
20689;SDS011;10504;48.762;8.996;2022-07-29T07:26:56;3.17;;;1.20;;
20689;SDS011;10504;48.762;8.996;2022-07-29T07:29:22;2.23;;;1.03;;
20689;SDS011;10504;48.762;8.996;2022-07-29T07:31:48;1.77;;;1.03;;
20689;SDS011;10504;48.762;8.996;2022-07-29T07:34:14;1.57;;;0.90;;
20689;SDS011;10504;48.762;8.996;2022-07-29T07:36:39;1.50;;;1.03;;
20689;SDS011;10504;48.762;8.996;2022-07-29T07:39:05;2.03;;;1.33;;
20689;SDS011;10504;48.762;8.996;2022-07-29T07:41:31;2.07;;;1.30;;
20689;SDS011;10504;48.762;8.996;2022-07-29T07:43:57;1.50;;;0.90;;
20689;SDS011;10504;48.762;8.996;2022-07-29T07:46:22;2.50;;;1.40;;
20689;SDS011;10504;48.762;8.996;2022-07-29T07:48:48;2.10;;;1.30;;
20689;SDS011;10504;48.762;8.996;2022-07-29T07:51:14;2.30;;;1.07;;
20689;SDS011;10504;48.762;8.996;2022-07-29T07:53:39;2.40;;;1.33;;
20689;SDS011;10504;48.762;8.996;2022-07-29T07:56:05;3.20;;;1.27;;
20689;SDS011;10504;48.762;8.996;2022-07-29T07:58:32;1.70;;;1.30;;
20689;SDS011;10504;48.762;8.996;2022-07-29T08:00:58;3.30;;;1.43;;
20689;SDS011;10504;48.762;8.996;2022-07-29T08:03:23;3.13;;;1.47;;
20689;SDS011;10504;48.762;8.996;2022-07-29T08:05:49;5.13;;;1.20;;
20689;SDS011;10504;48.762;8.996;2022-07-29T08:08:16;3.37;;;1.70;;
20689;SDS011;10504;48.762;8.996;2022-07-29T08:10:42;3.90;;;1.57;;
20689;SDS011;10504;48.762;8.996;2022-07-29T08:13:17;3.10;;;1.80;;
20689;SDS011;10504;48.762;8.996;2022-07-29T08:15:44;2.57;;;1.60;;
20689;SDS011;10504;48.762;8.996;2022-07-29T08:18:11;1.57;;;1.27;;
20689;SDS011;10504;48.762;8.996;2022-07-29T08:20:37;1.73;;;1.20;;
20689;SDS011;10504;48.762;8.996;2022-07-29T08:23:04;2.93;;;1.23;;
20689;SDS011;10504;48.762;8.996;2022-07-29T08:25:33;2.30;;;1.47;;
20689;SDS011;10504;48.762;8.996;2022-07-29T08:28:01;3.03;;;1.43;;
20689;SDS011;10504;48.762;8.996;2022-07-29T08:30:27;2.13;;;1.43;;
20689;SDS011;10504;48.762;8.996;2022-07-29T08:32:53;3.03;;;1.30;;
20689;SDS011;10504;48.762;8.996;2022-07-29T08:35:19;2.10;;;1.40;;
20689;SDS011;10504;48.762;8.996;2022-07-29T08:37:45;3.23;;;1.30;;
20689;SDS011;10504;48.762;8.996;2022-07-29T08:40:11;1.20;;;1.07;;
20689;SDS011;10504;48.762;8.996;2022-07-29T08:42:37;2.17;;;1.23;;
20689;SDS011;10504;48.762;8.996;2022-07-29T08:45:04;3.10;;;1.80;;
20689;SDS011;10504;48.762;8.996;2022-07-29T08:47:30;2.50;;;1.53;;
20689;SDS011;10504;48.762;8.996;2022-07-29T08:49:56;3.10;;;1.40;;
20689;SDS011;10504;48.762;8.996;2022-07-29T08:52:22;3.17;;;1.70;;
20689;SDS011;10504;48.762;8.996;2022-07-29T08:54:52;3.00;;;1.87;;
20689;SDS011;10504;48.762;8.996;2022-07-29T08:57:18;3.90;;;1.57;;
20689;SDS011;10504;48.762;8.996;2022-07-29T08:59:45;3.10;;;1.33;;
20689;SDS011;10504;48.762;8.996;2022-07-29T09:02:15;2.03;;;1.20;;
20689;SDS011;10504;48.762;8.996;2022-07-29T09:04:45;2.57;;;1.50;;
20689;SDS011;10504;48.762;8.996;2022-07-29T09:07:11;1.73;;;1.13;;
20689;SDS011;10504;48.762;8.996;2022-07-29T09:09:42;2.83;;;1.63;;
20689;SDS011;10504;48.762;8.996;2022-07-29T09:12:09;2.27;;;1.37;;
20689;SDS011;10504;48.762;8.996;2022-07-29T09:14:39;2.97;;;1.43;;
20689;SDS011;10504;48.762;8.996;2022-07-29T09:17:05;3.53;;;1.80;;
20689;SDS011;10504;48.762;8.996;2022-07-29T09:19:35;2.27;;;1.20;;
20689;SDS011;10504;48.762;8.996;2022-07-29T09:22:05;2.20;;;1.10;;
20689;SDS011;10504;48.762;8.996;2022-07-29T09:24:39;2.20;;;1.20;;
20689;SDS011;10504;48.762;8.996;2022-07-29T09:27:09;2.40;;;1.43;;
20689;SDS011;10504;48.762;8.996;2022-07-29T09:30:08;1.70;;;0.80;;
20689;SDS011;10504;48.762;8.996;2022-07-29T09:35:24;1.50;;;1.20;;
20689;SDS011;10504;48.762;8.996;2022-07-29T09:37:50;5.60;;;2.10;;
20689;SDS011;10504;48.762;8.996;2022-07-29T09:40:20;1.87;;;1.00;;
20689;SDS011;10504;48.762;8.996;2022-07-29T09:42:53;1.90;;;1.27;;
20689;SDS011;10504;48.762;8.996;2022-07-29T09:45:30;1.53;;;1.20;;
20689;SDS011;10504;48.762;8.996;2022-07-29T09:47:57;1.93;;;1.37;;
20689;SDS011;10504;48.762;8.996;2022-07-29T09:51:01;1.60;;;1.13;;
20689;SDS011;10504;48.762;8.996;2022-07-29T09:53:33;2.67;;;1.40;;
20689;SDS011;10504;48.762;8.996;2022-07-29T09:56:01;1.67;;;1.43;;
20689;SDS011;10504;48.762;8.996;2022-07-29T09:58:27;2.47;;;1.30;;
20689;SDS011;10504;48.762;8.996;2022-07-29T10:00:53;1.97;;;1.30;;
20689;SDS011;10504;48.762;8.996;2022-07-29T10:03:20;2.80;;;1.37;;
20689;SDS011;10504;48.762;8.996;2022-07-29T10:05:47;2.37;;;1.60;;
20689;SDS011;10504;48.762;8.996;2022-07-29T10:08:33;2.63;;;1.30;;
20689;SDS011;10504;48.762;8.996;2022-07-29T10:11:17;1.93;;;1.47;;
20689;SDS011;10504;48.762;8.996;2022-07-29T10:13:45;7.03;;;1.83;;
20689;SDS011;10504;48.762;8.996;2022-07-29T10:16:12;3.93;;;1.83;;
20689;SDS011;10504;48.762;8.996;2022-07-29T10:18:39;3.07;;;1.50;;
20689;SDS011;10504;48.762;8.996;2022-07-29T10:21:06;3.07;;;1.53;;
20689;SDS011;10504;48.762;8.996;2022-07-29T10:23:32;3.60;;;1.60;;
20689;SDS011;10504;48.762;8.996;2022-07-29T10:25:59;3.80;;;1.70;;
20689;SDS011;10504;48.762;8.996;2022-07-29T10:28:25;3.23;;;1.50;;
20689;SDS011;10504;48.762;8.996;2022-07-29T10:30:52;3.87;;;2.10;;
20689;SDS011;10504;48.762;8.996;2022-07-29T10:36:32;4.17;;;1.80;;
20689;SDS011;10504;48.762;8.996;2022-07-29T10:42:24;6.27;;;2.63;;
20689;SDS011;10504;48.762;8.996;2022-07-29T10:44:52;9.20;;;3.70;;
20689;SDS011;10504;48.762;8.996;2022-07-29T10:47:22;8.97;;;2.93;;
20689;SDS011;10504;48.762;8.996;2022-07-29T10:52:22;7.97;;;3.67;;
20689;SDS011;10504;48.762;8.996;2022-07-29T10:54:49;7.10;;;2.90;;
20689;SDS011;10504;48.762;8.996;2022-07-29T10:57:20;6.47;;;3.20;;
20689;SDS011;10504;48.762;8.996;2022-07-29T10:59:47;10.67;;;5.30;;
20689;SDS011;10504;48.762;8.996;2022-07-29T11:07:31;8.70;;;3.70;;
20689;SDS011;10504;48.762;8.996;2022-07-29T11:15:11;10.50;;;4.20;;
20689;SDS011;10504;48.762;8.996;2022-07-29T11:20:42;8.27;;;3.50;;
20689;SDS011;10504;48.762;8.996;2022-07-29T11:31:50;7.23;;;3.30;;
20689;SDS011;10504;48.762;8.996;2022-07-29T11:34:30;7.93;;;3.37;;
20689;SDS011;10504;48.762;8.996;2022-07-29T11:39:36;5.23;;;2.70;;
20689;SDS011;10504;48.762;8.996;2022-07-29T11:45:44;4.77;;;2.37;;
20689;SDS011;10504;48.762;8.996;2022-07-29T11:47:42;4.03;;;1.90;;
20689;SDS011;10504;48.762;8.996;2022-07-29T11:50:18;4.73;;;2.27;;
20689;SDS011;10504;48.762;8.996;2022-07-29T11:53:12;5.77;;;2.50;;
20689;SDS011;10504;48.762;8.996;2022-07-29T11:55:48;4.47;;;2.07;;
20689;SDS011;10504;48.762;8.996;2022-07-29T11:58:30;4.70;;;2.27;;
20689;SDS011;10504;48.762;8.996;2022-07-29T12:41:16;5.37;;;2.17;;
20689;SDS011;10504;48.762;8.996;2022-07-29T12:44:00;3.47;;;2.13;;
20689;SDS011;10504;48.762;8.996;2022-07-29T12:47:04;5.10;;;2.47;;
20689;SDS011;10504;48.762;8.996;2022-07-29T12:49:32;5.37;;;2.37;;
20689;SDS011;10504;48.762;8.996;2022-07-29T12:52:28;7.30;;;2.83;;
20689;SDS011;10504;48.762;8.996;2022-07-29T12:54:55;4.50;;;2.20;;
20689;SDS011;10504;48.762;8.996;2022-07-29T12:57:21;4.47;;;2.03;;
20689;SDS011;10504;48.762;8.996;2022-07-29T13:00:00;5.30;;;2.50;;
20689;SDS011;10504;48.762;8.996;2022-07-29T13:02:33;4.87;;;2.30;;
20689;SDS011;10504;48.762;8.996;2022-07-29T13:04:59;3.73;;;2.03;;
20689;SDS011;10504;48.762;8.996;2022-07-29T13:07:30;3.37;;;1.80;;
20689;SDS011;10504;48.762;8.996;2022-07-29T13:10:13;5.73;;;2.70;;
20689;SDS011;10504;48.762;8.996;2022-07-29T13:15:43;5.07;;;2.10;;
20689;SDS011;10504;48.762;8.996;2022-07-29T13:21:10;5.63;;;2.70;;
20689;SDS011;10504;48.762;8.996;2022-07-29T13:23:37;6.67;;;2.67;;
20689;SDS011;10504;48.762;8.996;2022-07-29T13:26:06;5.47;;;2.77;;
20689;SDS011;10504;48.762;8.996;2022-07-29T13:28:33;5.77;;;2.70;;
20689;SDS011;10504;48.762;8.996;2022-07-29T13:30:59;6.80;;;2.63;;
20689;SDS011;10504;48.762;8.996;2022-07-29T13:33:25;5.10;;;2.47;;
20689;SDS011;10504;48.762;8.996;2022-07-29T13:35:51;4.47;;;2.50;;
20689;SDS011;10504;48.762;8.996;2022-07-29T13:38:16;4.17;;;2.30;;
20689;SDS011;10504;48.762;8.996;2022-07-29T13:40:42;2.63;;;1.80;;
20689;SDS011;10504;48.762;8.996;2022-07-29T13:43:09;4.17;;;2.37;;
20689;SDS011;10504;48.762;8.996;2022-07-29T13:45:35;5.87;;;2.10;;
20689;SDS011;10504;48.762;8.996;2022-07-29T13:48:01;4.37;;;2.17;;
20689;SDS011;10504;48.762;8.996;2022-07-29T13:50:27;4.93;;;2.27;;
20689;SDS011;10504;48.762;8.996;2022-07-29T13:52:53;3.07;;;2.00;;
20689;SDS011;10504;48.762;8.996;2022-07-29T13:55:18;3.60;;;2.13;;
20689;SDS011;10504;48.762;8.996;2022-07-29T13:57:44;3.23;;;1.90;;
20689;SDS011;10504;48.762;8.996;2022-07-29T14:00:10;3.57;;;1.60;;
20689;SDS011;10504;48.762;8.996;2022-07-29T14:02:37;3.17;;;1.73;;
20689;SDS011;10504;48.762;8.996;2022-07-29T14:05:03;5.13;;;2.23;;
20689;SDS011;10504;48.762;8.996;2022-07-29T14:07:30;5.40;;;2.37;;
20689;SDS011;10504;48.762;8.996;2022-07-29T14:09:56;2.53;;;1.60;;
20689;SDS011;10504;48.762;8.996;2022-07-29T14:12:22;4.67;;;2.37;;
20689;SDS011;10504;48.762;8.996;2022-07-29T14:14:47;3.27;;;1.90;;
20689;SDS011;10504;48.762;8.996;2022-07-29T14:17:14;4.97;;;1.97;;
20689;SDS011;10504;48.762;8.996;2022-07-29T14:19:40;3.83;;;1.77;;
20689;SDS011;10504;48.762;8.996;2022-07-29T14:22:07;5.97;;;2.70;;
20689;SDS011;10504;48.762;8.996;2022-07-29T14:24:33;3.33;;;1.73;;
20689;SDS011;10504;48.762;8.996;2022-07-29T14:27:02;3.73;;;2.03;;
20689;SDS011;10504;48.762;8.996;2022-07-29T14:29:29;4.90;;;2.13;;
20689;SDS011;10504;48.762;8.996;2022-07-29T14:31:54;3.00;;;1.97;;
20689;SDS011;10504;48.762;8.996;2022-07-29T14:34:20;3.57;;;1.77;;
20689;SDS011;10504;48.762;8.996;2022-07-29T14:36:46;2.90;;;1.70;;
20689;SDS011;10504;48.762;8.996;2022-07-29T14:39:11;3.80;;;1.83;;
20689;SDS011;10504;48.762;8.996;2022-07-29T14:41:37;5.77;;;2.70;;
20689;SDS011;10504;48.762;8.996;2022-07-29T14:44:03;3.57;;;1.90;;
20689;SDS011;10504;48.762;8.996;2022-07-29T14:46:29;2.73;;;1.70;;
20689;SDS011;10504;48.762;8.996;2022-07-29T14:48:54;3.27;;;1.73;;
20689;SDS011;10504;48.762;8.996;2022-07-29T14:51:20;4.03;;;1.80;;
20689;SDS011;10504;48.762;8.996;2022-07-29T14:53:47;4.00;;;2.10;;
20689;SDS011;10504;48.762;8.996;2022-07-29T14:56:13;3.40;;;2.00;;
20689;SDS011;10504;48.762;8.996;2022-07-29T14:58:38;4.13;;;2.17;;
20689;SDS011;10504;48.762;8.996;2022-07-29T15:01:04;3.13;;;1.70;;
20689;SDS011;10504;48.762;8.996;2022-07-29T15:03:31;3.10;;;2.13;;
20689;SDS011;10504;48.762;8.996;2022-07-29T15:05:56;5.17;;;2.30;;
20689;SDS011;10504;48.762;8.996;2022-07-29T15:08:22;5.73;;;1.87;;
20689;SDS011;10504;48.762;8.996;2022-07-29T15:10:48;5.77;;;1.87;;
20689;SDS011;10504;48.762;8.996;2022-07-29T15:13:14;4.60;;;2.23;;
20689;SDS011;10504;48.762;8.996;2022-07-29T15:15:39;4.33;;;1.90;;
20689;SDS011;10504;48.762;8.996;2022-07-29T15:18:06;3.17;;;1.73;;
20689;SDS011;10504;48.762;8.996;2022-07-29T15:20:31;6.60;;;2.73;;
20689;SDS011;10504;48.762;8.996;2022-07-29T15:22:57;3.73;;;2.07;;
20689;SDS011;10504;48.762;8.996;2022-07-29T15:25:23;4.37;;;2.03;;
20689;SDS011;10504;48.762;8.996;2022-07-29T15:27:50;5.07;;;2.00;;
20689;SDS011;10504;48.762;8.996;2022-07-29T15:30:16;3.77;;;2.37;;
20689;SDS011;10504;48.762;8.996;2022-07-29T15:32:42;4.03;;;1.80;;
20689;SDS011;10504;48.762;8.996;2022-07-29T15:35:09;3.53;;;1.70;;
20689;SDS011;10504;48.762;8.996;2022-07-29T15:37:38;3.20;;;1.83;;
20689;SDS011;10504;48.762;8.996;2022-07-29T15:40:05;3.40;;;2.00;;
20689;SDS011;10504;48.762;8.996;2022-07-29T15:42:31;3.90;;;2.17;;
20689;SDS011;10504;48.762;8.996;2022-07-29T15:44:57;2.57;;;1.70;;
20689;SDS011;10504;48.762;8.996;2022-07-29T15:47:27;4.50;;;2.30;;
20689;SDS011;10504;48.762;8.996;2022-07-29T15:49:53;4.20;;;2.40;;
20689;SDS011;10504;48.762;8.996;2022-07-29T15:52:19;4.37;;;2.53;;
20689;SDS011;10504;48.762;8.996;2022-07-29T15:54:46;4.43;;;2.40;;
20689;SDS011;10504;48.762;8.996;2022-07-29T15:57:11;4.13;;;2.37;;
20689;SDS011;10504;48.762;8.996;2022-07-29T15:59:38;5.53;;;2.30;;
20689;SDS011;10504;48.762;8.996;2022-07-29T16:02:03;4.87;;;2.47;;
20689;SDS011;10504;48.762;8.996;2022-07-29T16:04:30;5.13;;;2.27;;
20689;SDS011;10504;48.762;8.996;2022-07-29T16:06:56;4.33;;;2.07;;
20689;SDS011;10504;48.762;8.996;2022-07-29T16:09:22;3.83;;;2.13;;
20689;SDS011;10504;48.762;8.996;2022-07-29T16:11:47;4.07;;;2.13;;
20689;SDS011;10504;48.762;8.996;2022-07-29T16:14:15;3.83;;;2.10;;
20689;SDS011;10504;48.762;8.996;2022-07-29T16:16:41;3.83;;;2.10;;
20689;SDS011;10504;48.762;8.996;2022-07-29T16:19:07;3.30;;;1.80;;
20689;SDS011;10504;48.762;8.996;2022-07-29T16:21:36;5.47;;;2.27;;
20689;SDS011;10504;48.762;8.996;2022-07-29T16:24:03;4.60;;;2.47;;
20689;SDS011;10504;48.762;8.996;2022-07-29T16:26:29;3.80;;;2.23;;
20689;SDS011;10504;48.762;8.996;2022-07-29T16:28:55;5.73;;;2.50;;
20689;SDS011;10504;48.762;8.996;2022-07-29T16:31:21;4.30;;;1.97;;
20689;SDS011;10504;48.762;8.996;2022-07-29T16:33:50;5.07;;;2.40;;